createdAt,value
2019-01-20T00:01:01.458Z,100974.97
2019-01-20T00:05:54.314Z,100972.37
2019-01-20T00:10:47.159Z,100980.06
2019-01-20T00:15:40.913Z,100980.94
2019-01-20T00:20:33.727Z,100979.50
2019-01-20T00:25:26.565Z,100977.20
2019-01-20T00:30:19.510Z,100977.27
2019-01-20T00:35:12.377Z,100981.33
2019-01-20T00:40:08.039Z,100979.73
2019-01-20T00:45:02.702Z,100976.48
2019-01-20T00:49:55.735Z,100981.45
2019-01-20T00:54:48.580Z,100984.74
2019-01-20T00:59:41.407Z,100985.83
2019-01-20T01:04:34.253Z,100974.41
2019-01-20T01:09:27.096Z,100974.81
2019-01-20T01:14:19.946Z,100979.17
2019-01-20T01:19:12.769Z,100980.59
2019-01-20T01:24:05.608Z,100979.53
2019-01-20T01:28:58.425Z,100982.32
2019-01-20T01:33:51.226Z,100986.98
2019-01-20T01:38:44.073Z,100982.41
2019-01-20T01:43:36.904Z,100989.45
2019-01-20T01:48:29.816Z,100985.80
2019-01-20T01:53:22.640Z,100988.12
2019-01-20T01:58:15.485Z,100988.75
2019-01-20T02:03:08.313Z,100993.17
2019-01-20T02:08:01.164Z,100993.97
2019-01-20T02:12:53.968Z,100998.75
2019-01-20T02:17:47.227Z,100993.18
2019-01-20T02:22:40.251Z,100987.45
2019-01-20T02:27:33.086Z,100994.27
2019-01-20T02:32:25.930Z,100990.95
2019-01-20T02:37:18.746Z,100994.75
2019-01-20T02:42:11.610Z,101001.20
2019-01-20T02:47:04.474Z,101008.30
2019-01-20T02:51:57.325Z,101003.45
2019-01-20T02:56:50.142Z,101002.71
2019-01-20T03:01:43.102Z,101003.74
2019-01-20T03:06:35.928Z,101000.45
2019-01-20T03:11:28.843Z,101008.31
2019-01-20T03:16:21.660Z,101002.90
2019-01-20T03:21:14.508Z,100994.94
2019-01-20T03:26:07.324Z,100997.94
2019-01-20T03:31:00.197Z,101003.92
2019-01-20T03:35:53.160Z,100995.69
2019-01-20T03:40:45.967Z,100991.44
2019-01-20T03:45:38.828Z,100994.31
2019-01-20T03:50:31.629Z,100990.53
2019-01-20T03:55:24.458Z,100990.81
2019-01-20T04:00:20.274Z,100989.05
2019-01-20T04:05:13.467Z,100990.00
2019-01-20T04:10:10.235Z,100982.77
2019-01-20T04:15:03.630Z,100988.94
2019-01-20T04:19:57.325Z,100989.81
2019-01-20T04:24:50.196Z,100984.69
2019-01-20T04:29:43.015Z,100987.06
2019-01-20T04:34:35.910Z,100987.00
2019-01-20T04:39:28.835Z,100984.27
2019-01-20T04:44:21.712Z,100991.00
2019-01-20T04:49:14.551Z,100989.74
2019-01-20T04:54:07.897Z,100993.13
2019-01-20T04:59:00.744Z,100992.36
2019-01-20T05:03:53.593Z,100994.34
2019-01-20T05:08:46.430Z,100996.52
2019-01-20T05:13:39.300Z,100997.16
2019-01-20T05:18:32.130Z,101004.14
2019-01-20T05:23:24.957Z,100997.72
2019-01-20T05:28:17.778Z,101003.23
2019-01-20T05:33:10.604Z,101005.34
2019-01-20T05:38:03.737Z,101002.27
2019-01-20T05:42:58.286Z,101008.88
2019-01-20T05:47:51.122Z,101002.53
2019-01-20T05:52:43.953Z,101014.41
2019-01-20T05:57:36.788Z,101010.09
2019-01-20T06:02:29.637Z,101011.41
2019-01-20T06:07:22.439Z,101019.20
2019-01-20T06:12:15.272Z,101028.30
2019-01-20T06:17:08.087Z,101038.30
2019-01-20T06:22:00.915Z,101045.16
2019-01-20T06:26:53.799Z,101053.22
2019-01-20T06:31:46.636Z,101049.90
2019-01-20T06:36:39.436Z,101055.16
2019-01-20T06:41:32.289Z,101053.59
2019-01-20T06:46:25.870Z,101057.11
2019-01-20T06:51:18.741Z,101064.73
2019-01-20T06:56:11.576Z,101073.53
2019-01-20T07:01:04.508Z,101076.66
2019-01-20T07:05:57.363Z,101086.52
2019-01-20T07:10:50.172Z,101097.97
2019-01-20T07:15:43.027Z,101093.02
2019-01-20T07:20:35.870Z,101100.73
2019-01-20T07:25:28.739Z,101110.16
2019-01-20T07:30:23.069Z,101120.48
2019-01-20T07:35:15.926Z,101120.84
2019-01-20T07:40:11.004Z,101128.22
2019-01-20T07:45:06.947Z,101134.67
2019-01-20T07:49:59.796Z,101142.67
2019-01-20T07:54:52.655Z,101149.05
2019-01-20T07:59:45.486Z,101148.84
2019-01-20T08:04:38.287Z,101151.90
2019-01-20T08:09:31.143Z,101151.63
2019-01-20T08:14:23.987Z,101153.02
2019-01-20T08:19:16.834Z,101148.03
2019-01-20T08:24:09.681Z,101151.37
2019-01-20T08:29:02.512Z,101159.27
2019-01-20T08:33:55.332Z,101173.39
2019-01-20T08:38:48.163Z,101172.64
2019-01-20T08:43:41.101Z,101176.98
2019-01-20T08:48:34.162Z,101184.76
2019-01-20T08:53:28.392Z,101199.33
2019-01-20T08:58:21.537Z,101193.33
2019-01-20T09:03:14.370Z,101194.13
2019-01-20T09:08:07.209Z,101200.99
2019-01-20T09:13:06.297Z,101203.82
2019-01-20T09:17:59.150Z,101206.20
2019-01-20T09:22:51.962Z,101214.17
2019-01-20T09:27:44.862Z,101221.32
2019-01-20T09:32:37.793Z,101224.44
2019-01-20T09:37:30.716Z,101229.72
2019-01-20T09:42:23.574Z,101228.71
2019-01-20T09:47:16.378Z,101237.96
2019-01-20T09:52:09.247Z,101239.98
2019-01-20T09:57:02.051Z,101248.62
2019-01-20T10:01:54.901Z,101250.80
2019-01-20T10:06:47.723Z,101252.99
2019-01-20T10:11:40.589Z,101261.75
2019-01-20T10:16:33.386Z,101260.19
2019-01-20T10:21:26.267Z,101265.41
2019-01-20T10:26:19.172Z,101255.92
2019-01-20T10:31:12.030Z,101255.22
2019-01-20T10:36:05.814Z,101265.58
2019-01-20T10:40:58.622Z,101265.87
2019-01-20T10:45:51.473Z,101268.49
2019-01-20T10:50:44.314Z,101267.31
2019-01-20T10:55:37.142Z,101269.30
2019-01-20T11:00:34.550Z,101269.34
2019-01-20T11:05:30.724Z,101264.92
2019-01-20T11:10:22.465Z,101261.63
2019-01-20T11:15:15.505Z,101257.73
2019-01-20T11:20:10.865Z,101256.25
2019-01-20T11:25:05.241Z,101260.09
2019-01-20T11:29:59.898Z,101257.89
2019-01-20T11:34:52.779Z,101256.34
2019-01-20T11:39:45.598Z,101258.77
2019-01-20T11:44:38.455Z,101268.25
2019-01-20T11:49:31.284Z,101259.71
2019-01-20T11:54:24.188Z,101263.63
2019-01-20T11:59:17.119Z,101266.80
2019-01-20T12:04:09.956Z,101264.63
2019-01-20T12:09:06.040Z,101255.13
2019-01-20T12:13:58.912Z,101255.36
2019-01-20T12:18:51.773Z,101252.94
2019-01-20T12:23:44.675Z,101248.41
2019-01-20T12:28:37.491Z,101244.81
2019-01-20T12:33:30.312Z,101244.95
2019-01-20T12:38:23.159Z,101244.45
2019-01-20T12:43:16.018Z,101241.15
2019-01-20T12:48:08.880Z,101241.73
2019-01-20T12:53:01.694Z,101236.61
2019-01-20T12:57:54.558Z,101245.94
2019-01-20T13:02:47.537Z,101246.32
2019-01-20T13:07:40.379Z,101245.58
2019-01-20T13:12:33.235Z,101236.38
2019-01-20T13:17:26.060Z,101239.39
2019-01-20T13:22:18.909Z,101242.73
2019-01-20T13:27:11.732Z,101237.42
2019-01-20T13:32:04.705Z,101237.63
2019-01-20T13:36:57.535Z,101238.25
2019-01-20T13:41:50.404Z,101233.52
2019-01-20T13:46:43.246Z,101234.32
2019-01-20T13:51:36.086Z,101232.97
2019-01-20T13:56:28.922Z,101236.13
2019-01-20T14:01:21.764Z,101237.19
2019-01-20T14:06:14.659Z,101245.49
2019-01-20T14:11:07.482Z,101254.42
2019-01-20T14:16:00.372Z,101246.70
2019-01-20T14:20:53.206Z,101254.97
2019-01-20T14:25:46.096Z,101247.73
2019-01-20T14:30:39.040Z,101259.92
2019-01-20T14:35:31.860Z,101251.38
2019-01-20T14:40:24.717Z,101254.01
2019-01-20T14:45:18.109Z,101255.46
2019-01-20T14:50:16.044Z,101257.59
2019-01-20T14:55:09.317Z,101264.72
2019-01-20T15:00:02.635Z,101268.27
2019-01-20T15:04:55.514Z,101270.67
2019-01-20T15:09:48.398Z,101273.48
2019-01-20T15:14:41.228Z,101283.11
2019-01-20T15:19:34.035Z,101287.78
2019-01-20T15:24:31.197Z,101286.41
2019-01-20T15:29:21.680Z,101292.58
2019-01-20T15:34:14.485Z,101290.77
2019-01-20T15:39:08.359Z,101301.55
2019-01-20T15:44:01.198Z,101306.14
2019-01-20T15:48:54.035Z,101312.52
2019-01-20T15:53:46.965Z,101318.58
2019-01-20T15:58:39.827Z,101320.25
2019-01-20T16:03:32.659Z,101323.84
2019-01-20T16:08:25.474Z,101327.38
2019-01-20T16:13:18.354Z,101336.58
2019-01-20T16:18:14.383Z,101348.51
2019-01-20T16:23:07.721Z,101355.19
2019-01-20T16:28:00.532Z,101359.88
2019-01-20T16:32:53.383Z,101361.80
2019-01-20T16:37:47.195Z,101363.61
2019-01-20T16:42:40.266Z,101371.36
2019-01-20T16:47:34.825Z,101379.02
2019-01-20T16:52:27.737Z,101383.84
2019-01-20T16:57:20.589Z,101387.63
2019-01-20T17:02:13.444Z,101391.06
2019-01-20T17:07:06.432Z,101395.55
2019-01-20T17:11:59.272Z,101407.50
2019-01-20T17:16:52.091Z,101408.56
2019-01-20T17:21:44.947Z,101406.70
2019-01-20T17:26:37.809Z,101404.88
2019-01-20T17:31:30.629Z,101408.55
2019-01-20T17:36:23.479Z,101418.80
2019-01-20T17:41:16.335Z,101417.78
2019-01-20T17:46:09.202Z,101423.80
2019-01-20T17:51:02.074Z,101433.25
2019-01-20T17:55:54.951Z,101432.23
2019-01-20T18:00:54.267Z,101441.75
2019-01-20T18:05:47.613Z,101455.57
2019-01-20T18:10:40.579Z,101458.13
2019-01-20T18:15:33.474Z,101458.73
2019-01-20T18:20:27.815Z,101462.50
2019-01-20T18:25:21.130Z,101469.48
2019-01-20T18:30:19.824Z,101471.36
2019-01-20T18:35:12.773Z,101474.72
2019-01-20T18:40:12.869Z,101484.42
2019-01-20T18:45:07.440Z,101485.63
2019-01-20T18:50:00.315Z,101491.72
2019-01-20T18:54:53.192Z,101491.75
2019-01-20T18:59:46.045Z,101491.37
2019-01-20T19:04:38.878Z,101494.45
2019-01-20T19:09:31.738Z,101501.82
2019-01-20T19:14:24.573Z,101501.27
2019-01-20T19:19:17.425Z,101509.91
2019-01-20T19:24:10.303Z,101514.80
2019-01-20T19:29:03.398Z,101521.94
2019-01-20T19:33:56.431Z,101532.78
2019-01-20T19:38:49.283Z,101539.61
2019-01-20T19:43:42.122Z,101542.73
2019-01-20T19:48:34.940Z,101544.45
2019-01-20T19:53:27.761Z,101550.20
2019-01-20T19:58:20.711Z,101551.36
2019-01-20T20:03:13.616Z,101558.47
2019-01-20T20:08:06.489Z,101562.26
2019-01-20T20:12:59.320Z,101560.44
2019-01-20T20:17:52.492Z,101572.12
2019-01-20T20:22:45.402Z,101582.28
2019-01-20T20:27:38.219Z,101595.84
2019-01-20T20:32:31.089Z,101600.66
2019-01-20T20:37:23.923Z,101608.05
2019-01-20T20:42:16.872Z,101607.69
2019-01-20T20:47:09.741Z,101612.01
2019-01-20T20:52:02.609Z,101611.12
2019-01-20T20:56:55.442Z,101616.73
2019-01-20T21:01:48.258Z,101622.08
2019-01-20T21:06:41.169Z,101625.67
2019-01-20T21:11:33.998Z,101628.19
2019-01-20T21:16:26.832Z,101634.64
2019-01-20T21:21:19.663Z,101639.83
2019-01-20T21:26:19.828Z,101642.43
2019-01-20T21:31:12.688Z,101638.13
2019-01-20T21:36:06.559Z,101648.88
2019-01-20T21:40:59.431Z,101651.52
2019-01-20T21:45:52.297Z,101661.35
2019-01-20T21:50:45.157Z,101670.05
2019-01-20T21:55:38.012Z,101679.02
2019-01-20T22:00:30.851Z,101687.48
2019-01-20T22:05:23.758Z,101693.48
2019-01-20T22:10:18.954Z,101703.27
2019-01-20T22:15:12.338Z,101712.67
2019-01-20T22:20:07.326Z,101718.14
2019-01-20T22:25:00.213Z,101717.00
2019-01-20T22:29:53.113Z,101720.72
2019-01-20T22:34:45.947Z,101722.92
2019-01-20T22:39:38.908Z,101724.53
2019-01-20T22:44:31.765Z,101734.04
2019-01-20T22:49:24.707Z,101735.30
2019-01-20T22:54:17.545Z,101733.50
2019-01-20T22:59:10.400Z,101735.30
2019-01-20T23:04:03.817Z,101742.38
2019-01-20T23:08:56.666Z,101746.08
2019-01-20T23:13:49.502Z,101751.38
2019-01-20T23:18:42.415Z,101759.84
2019-01-20T23:23:36.216Z,101758.57
2019-01-20T23:28:29.094Z,101754.77
2019-01-20T23:33:21.920Z,101753.76
2019-01-20T23:38:14.790Z,101759.27
2019-01-20T23:43:07.665Z,101759.09
2019-01-20T23:48:03.720Z,101758.34
2019-01-20T23:52:56.559Z,101760.17
2019-01-20T23:57:49.465Z,101758.19
